Last 30 days

Temperature [°C]

Date Min. Avg. Max.
2018-01-15 -3,00 -2,49 -1,40
2018-01-16 -0,70 -0,70 -0,70

Humidity [%]

Date Min. Avg. Max.
2018-01-15 100 100 100
2018-01-16 100 100 100

Pressure [hPa]

Date Min. Avg. Max.
2017-12-17 1 024 1 024 1 024
2017-12-18 1 024 1 027 1 030
2017-12-19 1 029 1 030 1 033
2017-12-20 1 030 1 033 1 035
2017-12-21 1 027 1 028 1 030
2017-12-22 1 028 1 029 1 030
2017-12-23 1 015 1 021 1 030
2017-12-24 1 013 1 015 1 017
2017-12-25 1 010 1 014 1 015
2017-12-26 999 1 002 1 010
2017-12-27 988 994 1 001
2017-12-28 988 993 1 000
2017-12-29 1 000 1 004 1 006
2017-12-30 1 005 1 005 1 006
2018-01-01 996 1 000 1 003
2018-01-02 1 002 1 006 1 010
2018-01-03 984 990 1 008
2018-01-04 985 991 994
2018-01-05 989 994 1 002
2018-01-06 1 002 1 008 1 019
2018-01-07 1 020 1 028 1 036
2018-01-08 798 1 037 1 272
2018-01-09 781 1 022 1 254
2018-01-10 1 014 1 032 1 252
2018-01-11 1 016 1 026 1 250
2018-01-15 1 002 1 013 1 024
2018-01-16 989 992 1 001

Wind speed [m/s]

Date Min. Avg. Max.
2017-12-17 1,0 1,6 2,1
2017-12-18 1,0 2,3 4,6
2017-12-19 0,5 1,9 3,1
2017-12-20 1,0 2,4 3,1
2017-12-21 1,5 4,8 7,2
2017-12-22 3,1 6,2 7,7
2017-12-23 3,1 6,6 10,8
2017-12-24 5,1 7,2 10,3
2017-12-25 3,1 5,4 8,2
2017-12-26 3,1 4,4 8,2
2017-12-27 2,1 4,7 7,7
2017-12-28 1,5 2,8 4,6
2017-12-29 2,1 3,6 6,2
2017-12-30 3,6 5,6 6,7
2018-01-01 2,1 4,6 7,7
2018-01-02 0,5 2,2 5,1
2018-01-03 2,1 6,1 10,8
2018-01-04 1,5 4,5 7,7
2018-01-05 1,5 5,1 7,7
2018-01-06 1,5 2,8 5,1
2018-01-07 1,0 2,5 4,6
2018-01-08 0,5 1,8 4,1
2018-01-09 3,6 6,7 9,8
2018-01-10 2,1 4,9 8,2
2018-01-11 1,3 1,9 4,1
2018-01-15 7,2 9,3 12,3
2018-01-16 1,5 6,2 11,8

Temperature Internal [°C]

Date Min. Avg. Max.
2017-12-17 19,7 19,7 19,7
2017-12-18 18,4 19,7 20,8
2017-12-19 18,0 19,8 21,4
2017-12-20 19,1 20,1 21,2
2017-12-21 18,7 20,2 21,6
2017-12-22 19,4 20,5 21,8
2017-12-23 17,8 18,6 20,0
2017-12-24 16,7 17,4 17,9
2017-12-25 16,4 16,6 16,9
2017-12-26 15,8 16,2 16,5
2017-12-27 15,6 17,6 20,7
2017-12-28 19,0 20,5 21,7
2017-12-29 18,0 19,3 20,3
2017-12-30 17,4 17,6 17,9
2018-01-01 17,8 18,6 20,4
2018-01-02 18,7 20,0 21,1
2018-01-03 18,6 19,6 20,7
2018-01-04 17,8 19,3 20,9
2018-01-05 18,3 19,5 20,6
2018-01-06 19,2 20,1 20,8
2018-01-07 18,6 19,7 21,0
2018-01-08 17,3 19,0 20,0
2018-01-09 17,7 19,4 20,3
2018-01-10 18,4 19,9 21,4
2018-01-11 19,2 20,0 21,3
2018-01-15 16,3 16,5 16,8
2018-01-16 16,5 17,0 17,4

Light level []

Date Min. Avg. Max.
2017-12-17 0 0 0
2017-12-18 0 220 888
2017-12-19 0 195 884
2017-12-20 0 246 909
2017-12-21 0 245 915
2017-12-22 0 221 893
2017-12-23 0 210 895
2017-12-24 0 229 885
2017-12-25 0 230 915
2017-12-26 0 253 880
2017-12-27 0 258 917
2017-12-28 0 203 853
2017-12-29 0 252 911
2017-12-30 0 134 867
2018-01-01 0 273 927
2018-01-02 0 170 902
2018-01-03 0 207 885
2018-01-04 0 255 931
2018-01-05 0 239 931
2018-01-06 0 271 882
2018-01-07 0 45 670
2018-01-15 0 378 882
2018-01-16 0 261 949